Metar z połowy godziny Komunikat METAR ze strony awiacja.imgw.pl Metar G30 EPRA METAR EPRA 231230Z 14005KT 090V190 CAVOK 19/07 Q1012=